Time;durP1;ratioP1;P1;durP2;ratioP2;P2;SDS_P1;SDS_P2;PMS_P1;PMS_P2;Temp;Humidity;BMP_temperature;BMP_pressure;BME280_temperature;BME280_humidity;BME280_pressure;Samples;Min_cycle;Max_cycle;Signal;HPM_P1;HPM_P2
2022/04/26 03:37:56;;;;;;;;;;;;;;;19.57;76.48;96721.42;598471;237;67023;-69
2022/04/26 03:40:24;;;;;;;;;;;;;;;19.55;76.57;96719.02;598423;237;65411;-69
2022/04/26 03:42:51;;;;;;;;;;;;;;;19.55;76.65;96716.34;598452;237;65038;-69
2022/04/26 03:45:19;;;;;;;;;;;;;;;19.56;76.76;96722.47;598487;237;64857;-69
2022/04/26 03:47:46;;;;;;;;;;;;;;;19.55;76.74;96724.34;598518;237;62995;-69
2022/04/26 03:50:14;;;;;;;;;;;;;;;19.55;76.67;96718.22;598466;237;64856;-69
2022/04/26 03:52:41;;;;;;;;;;;;;;;19.55;76.50;96721.68;598496;237;64885;-69
2022/04/26 03:55:09;;;;;;;;;;;;;;;19.56;76.38;96733.14;598495;237;63071;-69
2022/04/26 03:57:36;;;;;;;;;;;;;;;19.55;76.37;96729.68;598496;237;67068;-69
2022/04/26 04:00:05;;;;;;;;;;;;;;;19.56;76.17;96735.80;598530;237;65571;-69
2022/04/26 04:02:32;;;;;;;;;;;;;;;19.55;75.96;96735.01;598391;237;65255;-69
2022/04/26 04:04:59;;;;;;;;;;;;;;;19.56;75.90;96736.63;598443;237;67077;-69
2022/04/26 04:07:27;;;;;;;;;;;;;;;19.56;75.86;96736.63;598501;237;66950;-69
2022/04/26 04:09:56;;;;;;;;;;;;;;;19.56;75.92;96733.14;598489;237;65391;-69
2022/04/26 04:12:23;;;;;;;;;;;;;;;19.56;75.94;96731.30;598509;237;67094;-69
2022/04/26 04:14:51;;;;;;;;;;;;;;;19.57;75.97;96742.75;598473;237;66919;-69
2022/04/26 04:17:18;;;;;;;;;;;;;;;19.56;75.94;96747.29;598479;237;63017;-69
2022/04/26 04:19:47;;;;;;;;;;;;;;;19.56;75.99;96759.79;598484;237;64848;-69
2022/04/26 04:22:15;;;;;;;;;;;;;;;19.56;76.02;96752.62;596854;237;66243;-69
2022/04/26 04:24:43;;;;;;;;;;;;;;;19.56;76.04;96760.61;590668;240;65414;-69
2022/04/26 04:27:10;;;;;;;;;;;;;;;19.56;76.06;96757.95;590557;240;66766;-69
2022/04/26 04:29:38;;;;;;;;;;;;;;;19.56;76.11;96757.13;589986;240;64478;-69
2022/04/26 04:32:05;;;;;;;;;;;;;;;19.56;76.19;96757.95;590638;240;63059;-69
2022/04/26 04:34:33;;;;;;;;;;;;;;;19.57;76.24;96764.07;583159;240;67248;-69
2022/04/26 04:37:01;;;;;;;;;;;;;;;19.55;76.22;96761.66;582597;243;66731;-69
2022/04/26 04:39:28;;;;;;;;;;;;;;;19.57;76.24;96764.07;582546;243;62987;-69
2022/04/26 04:41:56;;;;;;;;;;;;;;;19.56;76.28;96751.80;582527;240;66768;-69
2022/04/26 04:44:23;;;;;;;;;;;;;;;19.55;76.33;96751.00;582495;243;67903;-69
2022/04/26 04:46:51;;;;;;;;;;;;;;;19.56;76.40;96757.95;582360;243;65387;-69
2022/04/26 04:49:18;;;;;;;;;;;;;;;19.55;76.40;96759.00;582573;241;66726;-69
2022/04/26 04:51:46;;;;;;;;;;;;;;;19.54;76.40;96760.08;582383;243;67022;-69
2022/04/26 04:54:13;;;;;;;;;;;;;;;19.55;76.42;96761.66;581881;243;65213;-69
2022/04/26 04:56:41;;;;;;;;;;;;;;;19.54;76.38;96765.41;581782;243;68540;-69
2022/04/26 04:59:08;;;;;;;;;;;;;;;19.55;76.33;96766.99;582474;240;66903;-69
2022/04/26 05:01:36;;;;;;;;;;;;;;;19.54;76.33;96768.07;582465;243;62614;-69
2022/04/26 05:04:04;;;;;;;;;;;;;;;19.55;76.33;96772.33;582478;243;64829;-69
2022/04/26 05:06:31;;;;;;;;;;;;;;;19.54;76.42;96770.73;582458;243;64768;-69
2022/04/26 05:08:59;;;;;;;;;;;;;;;19.55;76.45;96774.98;582526;243;63988;-69
2022/04/26 05:11:26;;;;;;;;;;;;;;;19.55;76.49;96766.20;572185;243;70709;-69
2022/04/26 05:13:55;;;;;;;;;;;;;;;19.54;76.50;96778.73;572162;243;69922;-69
2022/04/26 05:16:24;;;;;;;;;;;;;;;19.55;76.49;96784.86;582548;243;65379;-69
2022/04/26 05:18:51;;;;;;;;;;;;;;;19.55;76.47;96782.98;582467;243;67001;-69
2022/04/26 05:21:19;;;;;;;;;;;;;;;19.54;76.51;96786.73;582533;243;66923;-73
2022/04/26 05:26:33;;;;;;;;;;;;;;;19.54;76.58;96781.39;582483;243;67517;-72
2022/04/26 05:29:01;;;;;;;;;;;;;;;19.54;76.57;96781.39;582520;243;66747;-72
2022/04/26 05:31:29;;;;;;;;;;;;;;;19.53;76.59;96779.78;582539;243;62989;-72
2022/04/26 05:33:56;;;;;;;;;;;;;;;19.54;76.61;96775.27;587371;240;64831;-72
2022/04/26 05:36:24;;;;;;;;;;;;;;;19.53;76.61;96785.11;589892;240;64456;-72
2022/04/26 05:38:51;;;;;;;;;;;;;;;19.54;76.59;96783.27;589903;240;63022;-72
2022/04/26 05:41:19;;;;;;;;;;;;;;;19.52;76.58;96788.85;589859;240;64835;-72
2022/04/26 05:43:46;;;;;;;;;;;;;;;19.52;76.53;96792.31;589914;240;64933;-72
2022/04/26 05:46:13;;;;;;;;;;;;;;;19.52;76.56;96786.19;589877;240;63123;-72
2022/04/26 05:48:41;;;;;;;;;;;;;;;19.53;76.61;96785.11;589778;240;64916;-69
2022/04/26 05:51:09;;;;;;;;;;;;;;;19.52;76.64;96791.52;590066;237;64527;-71
2022/04/26 05:53:36;;;;;;;;;;;;;;;19.54;76.91;96799.27;597062;237;65950;-72
2022/04/26 05:56:06;;;;;;;;;;;;;;;19.52;77.05;96799.52;597015;237;64639;-71
2022/04/26 05:58:34;;;;;;;;;;;;;;;19.52;76.28;96804.84;596953;237;67074;-71
2022/04/26 06:01:03;;;;;;;;;;;;;;;19.52;76.52;96799.52;597024;237;65150;-69
2022/04/26 06:03:30;;;;;;;;;;;;;;;19.52;76.30;96800.31;597014;237;64002;-70
2022/04/26 06:05:58;;;;;;;;;;;;;;;19.51;76.19;96792.59;597000;237;67111;-70
2022/04/26 06:08:25;;;;;;;;;;;;;;;19.51;76.18;96796.05;596966;237;65174;-71
2022/04/26 06:10:53;;;;;;;;;;;;;;;19.49;76.00;96794.72;597028;237;67214;-67
2022/04/26 06:13:20;;;;;;;;;;;;;;;19.50;75.94;96796.31;597033;237;64809;-69
2022/04/26 06:15:48;;;;;;;;;;;;;;;19.51;76.29;96789.93;596932;237;65506;-69
2022/04/26 06:18:15;;;;;;;;;;;;;;;19.52;76.50;96788.85;596958;237;67150;-69
2022/04/26 06:20:43;;;;;;;;;;;;;;;19.53;76.13;96790.44;596963;237;67175;-68
2022/04/26 06:23:10;;;;;;;;;;;;;;;19.52;70.72;96789.65;597087;237;65106;-68
2022/04/26 06:25:39;;;;;;;;;;;;;;;19.52;72.51;96781.65;597042;237;67993;-66
2022/04/26 06:28:09;;;;;;;;;;;;;;;19.53;74.06;96779.78;597057;237;65034;-66
2022/04/26 06:30:37;;;;;;;;;;;;;;;19.54;74.36;96778.73;596986;237;65533;-71
2022/04/26 06:33:06;;;;;;;;;;;;;;;19.54;73.89;96776.06;596952;237;66957;-72
2022/04/26 06:35:33;;;;;;;;;;;;;;;19.54;74.42;96781.39;597027;237;66955;-71
2022/04/26 06:38:01;;;;;;;;;;;;;;;19.53;74.40;96769.12;596973;237;62699;-71
2022/04/26 06:40:29;;;;;;;;;;;;;;;19.54;74.45;96775.27;596917;237;64896;-70
2022/04/26 06:42:58;;;;;;;;;;;;;;;19.54;74.55;96777.94;596988;237;64610;-70
2022/04/26 06:45:25;;;;;;;;;;;;;;;19.54;74.92;96784.06;597035;237;63072;-70
2022/04/26 06:47:54;;;;;;;;;;;;;;;19.55;75.25;96782.98;597030;237;64858;-71
2022/04/26 06:50:22;;;;;;;;;;;;;;;19.55;75.84;96777.66;596975;237;67558;-71
2022/04/26 06:52:50;;;;;;;;;;;;;;;19.55;75.58;96769.66;597075;237;62625;-71
2022/04/26 06:55:18;;;;;;;;;;;;;;;19.56;75.99;96762.45;597015;237;64836;-71
2022/04/26 06:57:46;;;;;;;;;;;;;;;19.55;75.94;96764.33;597014;237;65149;-70
2022/04/26 07:00:14;;;;;;;;;;;;;;;19.56;75.89;96767.78;597094;237;65511;-70
2022/04/26 07:02:41;;;;;;;;;;;;;;;19.56;75.49;96765.12;596974;237;67079;-70
2022/04/26 07:05:11;;;;;;;;;;;;;;;19.56;75.08;96768.61;597065;237;67162;-69
2022/04/26 07:07:39;;;;;;;;;;;;;;;19.56;75.16;96768.61;597052;237;63291;-72
2022/04/26 07:10:08;;;;;;;;;;;;;;;19.56;74.75;96771.28;596958;237;67264;-70
2022/04/26 07:12:35;;;;;;;;;;;;;;;19.55;74.54;96766.99;596995;237;67118;-69
2022/04/26 07:15:04;;;;;;;;;;;;;;;19.57;74.69;96772.07;597102;237;65138;-69
2022/04/26 07:17:31;;;;;;;;;;;;;;;19.57;75.65;96775.53;597006;237;67551;-73
2022/04/26 07:20:00;;;;;;;;;;;;;;;19.56;75.52;96765.95;597090;237;67029;-71
2022/04/26 07:22:29;;;;;;;;;;;;;;;19.56;75.49;96771.28;596906;237;63277;-68
2022/04/26 07:24:57;;;;;;;;;;;;;;;19.55;71.79;96769.66;597081;237;67669;-68
2022/04/26 07:27:25;;;;;;;;;;;;;;;19.57;73.36;96772.86;597110;237;64474;-68
2022/04/26 07:29:54;;;;;;;;;;;;;;;19.58;74.99;96774.45;597006;237;65194;-68
2022/04/26 07:34:20;;;;;;;;;;;;;;;19.57;75.41;96770.20;596934;237;67218;-69
2022/04/26 07:34:51;;;;;;;;;;;;;;;19.58;73.66;96768.33;595863;237;67138;-69
2022/04/26 07:37:20;;;;;;;;;;;;;;;19.58;74.87;96765.66;597033;237;63127;-69
2022/04/26 07:39:48;;;;;;;;;;;;;;;19.58;75.51;96770.99;596046;237;66807;-69
2022/04/26 07:42:15;;;;;;;;;;;;;;;19.58;75.47;96771.78;597093;237;64704;-69
2022/04/26 07:44:43;;;;;;;;;;;;;;;19.59;76.08;96767.25;596970;237;65154;-69
2022/04/26 07:47:10;;;;;;;;;;;;;;;19.59;75.88;96770.73;597070;237;64768;-69
2022/04/26 07:49:38;;;;;;;;;;;;;;;19.58;75.37;96774.45;597089;235;66988;-69
2022/04/26 07:52:06;;;;;;;;;;;;;;;19.59;75.33;96768.07;597014;237;65378;-68
2022/04/26 07:54:35;;;;;;;;;;;;;;;19.59;75.42;96764.58;597059;237;67050;-69
2022/04/26 07:57:03;;;;;;;;;;;;;;;19.59;75.50;96762.74;597100;237;64912;-71
2022/04/26 07:59:30;;;;;;;;;;;;;;;19.59;75.44;96770.73;596995;237;65346;-69
2022/04/26 08:01:58;;;;;;;;;;;;;;;19.60;75.38;96755.53;597080;237;64698;-69
2022/04/26 08:04:26;;;;;;;;;;;;;;;19.59;75.38;96757.41;597113;237;66663;-69
2022/04/26 08:06:53;;;;;;;;;;;;;;;19.59;75.38;96768.07;596911;237;65227;-69
2022/04/26 08:09:21;;;;;;;;;;;;;;;19.60;75.61;96764.33;597053;237;67085;-69
2022/04/26 08:11:49;;;;;;;;;;;;;;;19.60;75.81;96755.53;597057;237;68037;-69
2022/04/26 08:14:17;;;;;;;;;;;;;;;19.59;75.58;96762.74;597048;237;63033;-69
2022/04/26 08:16:44;;;;;;;;;;;;;;;19.58;70.84;96761.13;597054;237;64839;-69
2022/04/26 08:19:12;;;;;;;;;;;;;;;19.62;71.54;96759.53;597066;237;64837;-71
2022/04/26 08:21:40;;;;;;;;;;;;;;;19.60;71.31;96758.20;596268;237;62953;-68
2022/04/26 08:29:41;;;;;;;;;;;;;;;19.60;74.67;96764.33;597181;237;45446;-69
2022/04/26 08:32:08;;;;;;;;;;;;;;;19.60;74.74;96755.53;597133;237;64294;-69
2022/04/26 08:34:36;;;;;;;;;;;;;;;19.59;75.16;96752.08;598285;237;66840;-69
2022/04/26 08:37:03;;;;;;;;;;;;;;;19.60;75.39;96755.53;598440;237;65459;-70
2022/04/26 08:39:31;;;;;;;;;;;;;;;19.60;75.75;96763.53;598435;237;68626;-69
2022/04/26 08:41:59;;;;;;;;;;;;;;;19.60;77.17;96753.67;598398;237;66663;-68
2022/04/26 08:44:27;;;;;;;;;;;;;;;19.60;77.39;96747.55;598408;237;65146;-69
2022/04/26 08:52:27;;;;;;;;;;;;;;;19.59;77.30;96746.75;598400;237;65436;-69
2022/04/26 08:54:54;;;;;;;;;;;;;;;19.58;77.36;96742.47;598389;237;67229;-69
2022/04/26 08:57:22;;;;;;;;;;;;;;;19.60;77.41;96747.55;598447;237;66941;-69
2022/04/26 08:59:50;;;;;;;;;;;;;;;19.59;77.50;96738.75;598412;237;63034;-69
2022/04/26 09:02:19;;;;;;;;;;;;;;;19.58;77.64;96742.47;598382;237;64821;-68
2022/04/26 09:04:48;;;;;;;;;;;;;;;19.59;78.03;96735.27;598116;237;66916;-69
2022/04/26 09:07:29;;;;;;;;;;;;;;;19.58;78.41;96739.00;598331;237;63102;-69
2022/04/26 09:10:12;;;;;;;;;;;;;;;19.59;78.41;96743.26;595277;237;67277;-69
2022/04/26 09:12:55;;;;;;;;;;;;;;;19.58;78.44;96745.13;590675;237;66924;-69
2022/04/26 09:15:23;;;;;;;;;;;;;;;19.59;78.50;96737.92;595203;237;65936;-69
2022/04/26 09:17:52;;;;;;;;;;;;;;;19.58;78.59;96739.00;594674;237;67108;-69
2022/04/26 09:20:32;;;;;;;;;;;;;;;19.58;78.66;96734.47;594628;237;64373;-69
2022/04/26 09:23:00;;;;;;;;;;;;;;;19.58;78.76;96733.67;595199;237;65371;-70
2022/04/26 09:25:27;;;;;;;;;;;;;;;19.58;78.82;96741.67;594502;237;67088;-70
2022/04/26 09:27:56;;;;;;;;;;;;;;;19.58;78.72;96739.80;592871;237;67185;-71
2022/04/26 09:30:25;;;;;;;;;;;;;;;19.57;78.73;96743.55;591515;240;65356;-71
2022/04/26 09:32:53;;;;;;;;;;;;;;;19.58;78.75;96741.67;591446;240;67152;-70
2022/04/26 09:35:20;;;;;;;;;;;;;;;19.58;78.78;96749.67;591341;240;66699;-71
2022/04/26 09:37:48;;;;;;;;;;;;;;;19.59;78.87;96749.41;591512;240;63304;-70
2022/04/26 09:40:16;;;;;;;;;;;;;;;19.59;78.73;96746.75;591489;240;64937;-71
2022/04/26 09:42:43;;;;;;;;;;;;;;;19.59;78.77;96749.41;591500;240;66942;-70
2022/04/26 09:45:23;;;;;;;;;;;;;;;19.59;78.92;96748.59;595107;237;65338;-70
2022/04/26 09:47:51;;;;;;;;;;;;;;;19.58;78.81;96739.80;598454;237;64634;-69
2022/04/26 09:50:19;;;;;;;;;;;;;;;19.59;78.98;96749.41;598344;237;66829;-69
2022/04/26 09:52:47;;;;;;;;;;;;;;;19.59;78.84;96751.25;598276;237;63121;-71
2022/04/26 09:55:14;;;;;;;;;;;;;;;19.58;78.87;96750.46;598407;237;65039;-71
2022/04/26 09:57:43;;;;;;;;;;;;;;;19.60;78.80;96747.55;598322;237;64842;-71
2022/04/26 10:00:11;;;;;;;;;;;;;;;19.59;78.90;96749.41;598353;237;63245;-71
2022/04/26 10:02:41;;;;;;;;;;;;;;;19.60;78.84;96755.53;598149;237;67371;-69
2022/04/26 10:05:09;;;;;;;;;;;;;;;19.59;78.74;96754.74;596420;237;68660;-71
2022/04/26 10:07:38;;;;;;;;;;;;;;;19.59;78.72;96757.41;597792;237;63268;-71
2022/04/26 10:10:06;;;;;;;;;;;;;;;19.60;78.83;96750.20;597915;237;64887;-70
2022/04/26 10:12:34;;;;;;;;;;;;;;;19.61;78.88;96746.46;598446;237;66868;-70
2022/04/26 10:15:03;;;;;;;;;;;;;;;19.63;76.32;96753.13;598358;237;63227;-68
2022/04/26 10:17:32;;;;;;;;;;;;;;;19.61;75.78;96744.59;598275;237;67973;-68
2022/04/26 10:20:01;;;;;;;;;;;;;;;19.61;75.89;96749.92;598419;237;64839;-69
2022/04/26 10:22:33;;;;;;;;;;;;;;;19.62;76.35;96751.54;586150;237;68506;-69
2022/04/26 10:25:13;;;;;;;;;;;;;;;19.61;75.85;96741.92;587539;237;70627;-70
2022/04/26 10:27:40;;;;;;;;;;;;;;;19.61;75.62;96738.47;586288;237;70024;-70
2022/04/26 10:30:08;;;;;;;;;;;;;;;19.62;75.67;96735.55;591552;237;68972;-71
2022/04/26 10:32:38;;;;;;;;;;;;;;;19.61;75.70;96738.47;586287;237;70230;-70
2022/04/26 10:35:23;;;;;;;;;;;;;;;19.62;75.50;96732.88;598408;237;66676;-71
2022/04/26 10:38:11;;;;;;;;;;;;;;;19.61;75.53;96727.80;591616;237;68791;-70
2022/04/26 10:40:56;;;;;;;;;;;;;;;19.62;75.89;96738.21;598367;237;65836;-72
2022/04/26 10:43:24;;;;;;;;;;;;;;;19.61;76.69;96733.92;598346;237;66567;-72
2022/04/26 10:46:11;;;;;;;;;;;;;;;19.60;76.49;96740.34;598419;237;63024;-71
2022/04/26 10:48:38;;;;;;;;;;;;;;;19.60;76.27;96740.34;598240;237;65997;-71
2022/04/26 10:51:23;;;;;;;;;;;;;;;19.61;76.24;96738.47;598341;237;67130;-71
2022/04/26 10:53:51;;;;;;;;;;;;;;;19.60;76.48;96737.67;598412;237;65398;-71
2022/04/26 10:56:18;;;;;;;;;;;;;;;19.60;76.17;96743.00;598417;237;66888;-71
2022/04/26 10:58:53;;;;;;;;;;;;;;;19.61;76.66;96739.26;598372;237;64720;-71
2022/04/26 11:01:21;;;;;;;;;;;;;;;19.61;76.93;96735.80;598468;237;62980;-71
2022/04/26 11:03:53;;;;;;;;;;;;;;;19.60;76.97;96737.67;598393;237;65523;-71
2022/04/26 11:06:34;;;;;;;;;;;;;;;19.61;76.68;96725.93;598437;237;65219;-70
2022/04/26 11:09:08;;;;;;;;;;;;;;;19.61;76.66;96733.13;598201;237;63124;-71
2022/04/26 11:11:55;;;;;;;;;;;;;;;19.61;76.61;96725.14;598377;237;67246;-70
2022/04/26 11:14:24;;;;;;;;;;;;;;;19.61;76.74;96731.27;598448;237;65009;-70
2022/04/26 11:16:55;;;;;;;;;;;;;;;19.61;76.76;96717.14;598357;237;65585;-70
2022/04/26 11:19:28;;;;;;;;;;;;;;;19.61;76.86;96715.27;598430;237;67379;-70
2022/04/26 11:21:56;;;;;;;;;;;;;;;19.61;76.91;96711.81;598317;237;66896;-70
2022/04/26 11:29:55;;;;;;;;;;;;;;;19.60;76.79;96703.02;598376;237;64964;-70
2022/04/26 11:32:30;;;;;;;;;;;;;;;19.61;76.87;96723.27;598293;237;65472;-70
2022/04/26 11:34:58;;;;;;;;;;;;;;;19.61;76.87;96712.61;598464;237;64947;-71
2022/04/26 11:37:28;;;;;;;;;;;;;;;19.61;76.77;96709.94;598396;234;47095;-70
2022/04/26 11:39:55;;;;;;;;;;;;;;;19.62;76.81;96700.09;590554;237;65721;-71
2022/04/26 11:42:24;;;;;;;;;;;;;;;19.62;76.34;96714.22;586400;237;70226;-72
2022/04/26 11:44:58;;;;;;;;;;;;;;;19.63;76.34;96717.68;598383;237;64871;-71
2022/04/26 11:47:40;;;;;;;;;;;;;;;19.62;76.36;96710.77;598370;237;65329;-70
2022/04/26 11:50:15;;;;;;;;;;;;;;;19.63;75.28;96715.02;598382;237;66670;-71
2022/04/26 11:52:43;;;;;;;;;;;;;;;19.62;75.62;96719.55;591563;237;69810;-69
2022/04/26 11:55:25;;;;;;;;;;;;;;;19.62;75.55;96708.89;598305;237;66614;-68
2022/04/26 11:57:53;;;;;;;;;;;;;;;19.64;75.64;96706.76;598405;237;67190;-69
2022/04/26 12:00:21;;;;;;;;;;;;;;;19.65;76.00;96707.55;598322;237;67385;-68
2022/04/26 12:02:49;;;;;;;;;;;;;;;19.63;76.20;96689.15;598407;237;63357;-71
2022/04/26 12:05:18;;;;;;;;;;;;;;;19.63;76.35;96715.80;598476;237;67295;-70
2022/04/26 12:07:46;;;;;;;;;;;;;;;19.62;76.18;96705.42;598336;237;66884;-70
2022/04/26 12:10:26;;;;;;;;;;;;;;;19.62;76.05;96714.22;598306;237;65463;-70
2022/04/26 12:12:55;;;;;;;;;;;;;;;19.62;75.94;96708.89;598388;237;64938;-69
2022/04/26 12:15:26;;;;;;;;;;;;;;;19.62;75.84;96719.55;598358;237;67138;-70
2022/04/26 12:18:13;;;;;;;;;;;;;;;19.62;75.82;96708.89;598421;234;63071;-71
2022/04/26 12:20:55;;;;;;;;;;;;;;;19.62;75.76;96703.56;598088;237;67005;-70
2022/04/26 12:23:24;;;;;;;;;;;;;;;19.62;75.86;96700.09;598417;237;67153;-72
2022/04/26 12:25:55;;;;;;;;;;;;;;;19.62;75.85;96702.77;598272;237;63054;-70
2022/04/26 12:28:24;;;;;;;;;;;;;;;19.62;75.90;96702.77;598399;237;65091;-70
2022/04/26 12:30:52;;;;;;;;;;;;;;;19.61;75.84;96691.28;598324;237;67080;-70
2022/04/26 12:33:30;;;;;;;;;;;;;;;19.62;75.83;96687.56;598426;237;63065;-69
2022/04/26 12:36:02;;;;;;;;;;;;;;;19.63;76.09;96696.35;598382;237;66858;-70
2022/04/26 12:38:30;;;;;;;;;;;;;;;19.62;75.63;96695.56;598493;237;66989;-70
2022/04/26 12:41:02;;;;;;;;;;;;;;;19.62;75.72;96695.56;598436;237;63332;-70
2022/04/26 12:43:31;;;;;;;;;;;;;;;19.61;75.85;96696.61;598180;237;67648;-70
2022/04/26 12:45:59;;;;;;;;;;;;;;;19.62;75.63;96700.89;598418;237;65500;-70
2022/04/26 12:51:21;;;;;;;;;;;;;;;19.60;72.60;96694.23;583763;242;64934;-70
2022/04/26 12:53:46;;;;;;;;;;;;;;;19.62;71.76;96692.09;598346;237;66688;-70
2022/04/26 12:56:14;;;;;;;;;;;;;;;19.63;74.26;96691.81;598464;237;63260;-70
2022/04/26 12:58:43;;;;;;;;;;;;;;;19.62;75.76;96684.90;598337;237;66949;-70
2022/04/26 13:01:11;;;;;;;;;;;;;;;19.63;75.55;96691.02;598483;237;64536;-70
2022/04/26 13:03:40;;;;;;;;;;;;;;;19.62;75.59;96697.44;598415;237;63221;-72
2022/04/26 13:06:09;;;;;;;;;;;;;;;19.62;75.47;96692.09;598386;237;66977;-70
2022/04/26 13:08:37;;;;;;;;;;;;;;;19.61;75.49;96691.28;598415;237;66675;-70
2022/04/26 13:11:05;;;;;;;;;;;;;;;19.60;75.26;96687.03;598359;237;65379;-70
2022/04/26 13:13:34;;;;;;;;;;;;;;;19.61;75.33;96674.48;598413;237;64933;-71
2022/04/26 13:16:02;;;;;;;;;;;;;;;19.60;75.24;96676.36;598425;237;67231;-70
2022/04/26 13:18:29;;;;;;;;;;;;;;;19.60;75.14;96681.69;591683;237;63069;-70
2022/04/26 13:20:57;;;;;;;;;;;;;;;19.60;75.07;96673.70;598405;237;67062;-70
2022/04/26 13:23:26;;;;;;;;;;;;;;;19.60;75.24;96681.69;598379;237;67258;-70
2022/04/26 13:25:55;;;;;;;;;;;;;;;19.60;75.88;96679.03;598364;237;65175;-70
2022/04/26 13:28:25;;;;;;;;;;;;;;;19.61;75.80;96679.83;598395;237;67644;-73
2022/04/26 13:30:54;;;;;;;;;;;;;;;19.60;75.75;96673.70;598392;237;65010;-68
2022/04/26 13:33:22;;;;;;;;;;;;;;;19.60;75.89;96679.03;594314;237;63031;-70
2022/04/26 13:35:49;;;;;;;;;;;;;;;19.60;75.59;96687.03;588949;241;64486;-70
2022/04/26 13:38:17;;;;;;;;;;;;;;;19.61;75.51;96687.81;588961;241;67264;-69
2022/04/26 13:40:45;;;;;;;;;;;;;;;19.61;75.60;96685.95;588848;241;62629;-72
2022/04/26 13:43:13;;;;;;;;;;;;;;;19.61;75.81;96693.94;589002;241;68251;-70
2022/04/26 13:45:40;;;;;;;;;;;;;;;19.61;75.84;96690.48;588949;241;67779;-69
2022/04/26 13:48:10;;;;;;;;;;;;;;;19.61;76.05;96701.94;588878;241;66312;-69
2022/04/26 13:50:38;;;;;;;;;;;;;;;19.61;75.93;96691.28;588898;241;64836;-69
2022/04/26 13:53:06;;;;;;;;;;;;;;;19.60;75.84;96697.69;588903;241;67171;-70
2022/04/26 13:55:33;;;;;;;;;;;;;;;19.61;75.87;96707.27;588948;241;64977;-70
2022/04/26 13:58:03;;;;;;;;;;;;;;;19.62;75.91;96716.89;589009;241;65473;-68
2022/04/26 14:00:34;;;;;;;;;;;;;;;19.61;75.86;96717.94;588963;241;64629;-68
2022/04/26 14:03:00;;;;;;;;;;;;;;;19.63;75.67;96731.01;588904;238;62997;-73
2022/04/26 14:05:27;;;;;;;;;;;;;;;19.62;75.67;96729.42;588949;241;67825;-70
2022/04/26 14:07:55;;;;;;;;;;;;;;;19.62;75.98;96734.75;588976;241;66760;-71
2022/04/26 14:10:22;;;;;;;;;;;;;;;19.62;76.12;96735.55;588973;241;63074;-70
2022/04/26 14:12:49;;;;;;;;;;;;;;;19.62;76.01;96735.55;588832;241;64602;-71
2022/04/26 14:23:34;;;;;;;;;;;;;;;19.62;74.63;96746.20;588904;241;66333;-70
2022/04/26 14:26:03;;;;;;;;;;;;;;;19.63;74.35;96771.79;589005;241;64178;-69
2022/04/26 14:28:32;;;;;;;;;;;;;;;19.62;74.89;96772.86;588825;241;67715;-71
2022/04/26 14:31:00;;;;;;;;;;;;;;;19.61;75.34;96773.91;588893;241;66966;-71
2022/04/26 14:33:27;;;;;;;;;;;;;;;19.61;75.89;96776.58;593272;237;65269;-71
2022/04/26 14:35:55;;;;;;;;;;;;;;;19.62;75.92;96780.07;598311;237;67572;-75
2022/04/26 14:38:22;;;;;;;;;;;;;;;19.61;75.77;96795.23;598367;237;66688;-72
2022/04/26 14:40:50;;;;;;;;;;;;;;;19.61;75.68;96803.23;598448;237;65508;-71
2022/04/26 14:43:18;;;;;;;;;;;;;;;19.61;75.76;96805.91;598453;237;64608;-71
2022/04/26 14:45:45;;;;;;;;;;;;;;;19.61;75.65;96811.23;598336;237;66659;-70
2022/04/26 14:48:19;;;;;;;;;;;;;;;19.61;75.86;96813.90;598456;237;65501;-70
2022/04/26 14:50:44;;;;;;;;;;;;;;;19.61;75.54;96824.56;598105;237;66511;-70
2022/04/26 14:53:11;;;;;;;;;;;;;;;19.61;75.75;96827.23;598449;237;66699;-71
2022/04/26 14:55:39;;;;;;;;;;;;;;;19.62;75.66;96820.05;598428;237;65315;-70
2022/04/26 14:58:09;;;;;;;;;;;;;;;19.64;70.11;96818.73;598405;237;64902;-71
2022/04/26 15:00:38;;;;;;;;;;;;;;;19.66;71.64;96816.60;598293;237;66668;-71
2022/04/26 15:03:10;;;;;;;;;;;;;;;19.66;73.02;96821.14;598487;237;45089;-72
2022/04/26 15:05:37;;;;;;;;;;;;;;;19.65;73.93;96822.98;598532;237;64445;-72
2022/04/26 15:10:50;;;;;;;;;;;;;;;19.66;73.56;96832.59;598466;237;62990;-69
2022/04/26 15:18:49;;;;;;;;;;;;;;;19.63;75.45;96809.11;591694;237;66728;-72
2022/04/26 15:21:18;;;;;;;;;;;;;;;19.63;75.57;96817.11;591417;237;69970;-71
2022/04/26 15:23:46;;;;;;;;;;;;;;;19.62;75.31;96820.05;598473;237;64396;-71
2022/04/26 15:26:13;;;;;;;;;;;;;;;19.61;75.17;96816.56;598483;237;65457;-71
2022/04/26 15:28:41;;;;;;;;;;;;;;;19.61;75.25;96813.90;598455;237;66778;-71
2022/04/26 15:31:10;;;;;;;;;;;;;;;19.61;75.22;96800.57;598477;237;64603;-71
2022/04/26 15:33:39;;;;;;;;;;;;;;;19.62;75.10;96804.06;598418;237;45392;-71
2022/04/26 15:36:08;;;;;;;;;;;;;;;19.62;75.08;96798.73;598534;237;64295;-71
2022/04/26 15:38:36;;;;;;;;;;;;;;;19.61;74.54;96805.11;595699;237;66344;-71
2022/04/26 15:41:06;;;;;;;;;;;;;;;19.61;75.04;96799.78;591585;240;63262;-71
2022/04/26 15:43:35;;;;;;;;;;;;;;;19.60;75.06;96800.85;591665;240;66811;-72
2022/04/26 15:46:04;;;;;;;;;;;;;;;19.59;75.03;96792.06;591585;240;66908;-71
2022/04/26 15:48:34;;;;;;;;;;;;;;;19.60;75.14;96795.52;591327;240;63030;-70
2022/04/26 15:51:01;;;;;;;;;;;;;;;19.58;75.07;96787.78;591618;240;64606;-70
2022/04/26 15:53:29;;;;;;;;;;;;;;;19.57;75.06;96791.52;591637;240;66740;-70
2022/04/26 15:55:56;;;;;;;;;;;;;;;19.57;74.98;96794.19;591644;240;65144;-70
2022/04/26 15:58:24;;;;;;;;;;;;;;;19.57;74.90;96788.86;591626;240;64542;-70
2022/04/26 16:00:54;;;;;;;;;;;;;;;19.57;74.96;96798.72;591667;240;66720;-71
2022/04/26 16:03:21;;;;;;;;;;;;;;;19.57;74.90;96801.39;591673;240;63126;-71
2022/04/26 16:05:48;;;;;;;;;;;;;;;19.56;74.79;96797.11;591627;240;64112;-72
2022/04/26 16:08:16;;;;;;;;;;;;;;;19.56;74.94;96795.27;591660;240;66707;-72
2022/04/26 16:21:46;;;;;;;;;;;;;;;19.54;75.28;96800.05;591699;240;66735;-70
2022/04/26 16:24:13;;;;;;;;;;;;;;;19.52;75.58;96797.64;591506;240;67555;-71
2022/04/26 16:26:42;;;;;;;;;;;;;;;19.52;75.71;96799.52;591613;240;63829;-71
2022/04/26 16:29:10;;;;;;;;;;;;;;;19.51;75.86;96796.05;591634;240;66744;-71
2022/04/26 16:31:38;;;;;;;;;;;;;;;19.52;75.90;96796.84;591636;240;66709;-71
2022/04/26 16:34:06;;;;;;;;;;;;;;;19.52;75.91;96799.52;584853;240;62855;-71
2022/04/26 16:36:35;;;;;;;;;;;;;;;19.51;75.89;96803.25;582422;243;66686;-71
2022/04/26 16:39:04;;;;;;;;;;;;;;;19.51;75.92;96806.72;582406;241;64494;-71
2022/04/26 16:41:32;;;;;;;;;;;;;;;19.51;75.81;96814.72;582401;243;65385;-71
2022/04/26 16:44:01;;;;;;;;;;;;;;;19.51;75.83;96820.05;582412;241;44318;-71
2022/04/26 16:46:32;;;;;;;;;;;;;;;19.50;75.98;96821.09;582390;243;64666;-71
2022/04/26 16:48:58;;;;;;;;;;;;;;;19.50;75.85;96829.09;582343;243;63093;-70
2022/04/26 16:51:26;;;;;;;;;;;;;;;19.50;75.81;96839.75;582359;243;65603;-70
2022/04/26 16:53:53;;;;;;;;;;;;;;;19.50;75.87;96842.41;582356;243;66102;-71
2022/04/26 16:56:21;;;;;;;;;;;;;;;19.50;75.69;96841.62;582374;243;65493;-70
2022/04/26 16:58:48;;;;;;;;;;;;;;;19.50;75.89;96838.95;582407;243;66532;-70
2022/04/26 17:01:16;;;;;;;;;;;;;;;19.50;75.92;96833.62;582449;243;66708;-70
2022/04/26 17:03:47;;;;;;;;;;;;;;;19.50;76.00;96838.95;582387;243;65368;-70
2022/04/26 17:06:14;;;;;;;;;;;;;;;19.49;76.02;96848.81;582412;243;64537;-70
2022/04/26 17:08:44;;;;;;;;;;;;;;;19.50;75.94;96836.28;582341;243;64216;-70
2022/04/26 17:13:57;;;;;;;;;;;;;;;19.49;75.91;96826.70;582424;243;66714;-71
2022/04/26 17:16:24;;;;;;;;;;;;;;;19.49;75.76;96832.83;582390;243;66948;-71
2022/04/26 17:18:52;;;;;;;;;;;;;;;19.49;75.95;96840.03;582423;243;65342;-71
2022/04/26 17:21:20;;;;;;;;;;;;;;;19.48;75.81;96843.77;582364;243;67116;-71
2022/04/26 17:23:50;;;;;;;;;;;;;;;19.48;75.62;96844.56;582389;243;66733;-71
2022/04/26 17:26:17;;;;;;;;;;;;;;;19.48;75.72;96836.57;580549;243;66407;-71